Terminal Aerodrome Forecast
Issued by NWS

Home | Current Version | Previous Version | Text Only | Print | Product List | Glossary On
Versions: 1 2 3 4 5 6 7 8 9 10 11 12 13 14 15 16 17 18 19 20 21 22 23 24 25 26 27 28 29 30 31 32 33 34 35 36 37 38 39 40 41 42 43 44 45 46 47 48 49
228
FTUS42 KMFL 232116 AAA
TAFOPF
TAF AMD
KOPF 232116Z 2321/2418 24011KT P6SM VCTS SCT030CB BKN070
      TEMPO 2321/2324 -RA BKN020 BKN050
     FM240400 00000KT P6SM VCSH BKN030 OVC100
     FM241400 24007KT P6SM VCSH SCT030 BKN060=

USA.gov is the U.S. government's official web portal to all federal, state and local government web resources and services.